Time;durP1;ratioP1;P1;durP2;ratioP2;P2;SDS_P1;SDS_P2;PMS_P1;PMS_P2;Temp;Humidity;BMP_temperature;BMP_pressure;BME280_temperature;BME280_humidity;BME280_pressure;Samples;Min_cycle;Max_cycle;Signal;HPM_P1;HPM_P2
2023/06/11 00:01:15;;;;;;;0.30;0.30;;;21.20;71.90;;;;;;4420627;32;20085;-77
2023/06/11 00:03:42;;;;;;;0.62;0.43;;;21.10;72.20;;;;;;4424335;32;20591;-78
2023/06/11 00:06:08;;;;;;;0.50;0.50;;;21.10;72.50;;;;;;4405490;32;20152;-80
2023/06/11 00:08:33;;;;;;;0.32;0.32;;;21.00;72.80;;;;;;4420599;32;20253;-79
2023/06/11 00:10:59;;;;;;;0.30;0.30;;;21.00;73.00;;;;;;4420985;32;20067;-76
2023/06/11 00:13:26;;;;;;;0.70;0.68;;;21.00;73.40;;;;;;4422234;32;20106;-79
2023/06/11 00:15:52;;;;;;;0.28;0.28;;;20.90;73.50;;;;;;4423010;32;20112;-79
2023/06/11 00:18:17;;;;;;;0.37;0.37;;;20.80;74.00;;;;;;4423914;32;20140;-79
2023/06/11 00:20:43;;;;;;;0.40;0.40;;;20.80;74.20;;;;;;4422421;32;20105;-80
2023/06/11 00:23:09;;;;;;;1.55;0.65;;;20.60;74.60;;;;;;4423286;32;20140;-80
2023/06/11 00:25:35;;;;;;;0.52;0.35;;;20.70;74.80;;;;;;4420079;32;20082;-79
2023/06/11 00:28:00;;;;;;;1.40;0.77;;;20.70;75.50;;;;;;4424388;32;20148;-79
2023/06/11 00:30:26;;;;;;;0.45;0.45;;;20.60;75.40;;;;;;4420857;32;20081;-79
2023/06/11 00:32:51;;;;;;;0.25;0.25;;;20.50;75.70;;;;;;4423254;32;20085;-77
2023/06/11 00:35:17;;;;;;;0.55;0.50;;;20.50;76.10;;;;;;4421330;32;20100;-81
2023/06/11 00:37:43;;;;;;;0.88;0.85;;;20.50;76.00;;;;;;4427386;32;20131;-79
2023/06/11 00:40:09;;;;;;;0.32;0.32;;;20.50;76.40;;;;;;4425869;32;20104;-79
2023/06/11 00:42:35;;;;;;;0.30;0.30;;;20.40;76.80;;;;;;4425746;32;20073;-80
2023/06/11 00:45:02;;;;;;;0.28;0.28;;;20.30;76.90;;;;;;4424550;32;20073;-77
2023/06/11 00:47:29;;;;;;;0.40;0.40;;;20.40;77.00;;;;;;4427117;32;20088;-80
2023/06/11 00:49:55;;;;;;;0.20;0.20;;;20.30;77.30;;;;;;4425502;32;20113;-77
2023/06/11 00:52:21;;;;;;;0.40;0.40;;;20.30;77.60;;;;;;4427546;32;20089;-76
2023/06/11 00:54:47;;;;;;;0.47;0.47;;;20.20;77.90;;;;;;4423930;32;21341;-80
2023/06/11 00:57:17;;;;;;;0.37;0.37;;;20.10;78.30;;;;;;4427050;32;20820;-78
2023/06/11 00:59:48;;;;;;;0.32;0.32;;;20.00;78.50;;;;;;4426408;32;20155;-77
2023/06/11 01:02:21;;;;;;;0.88;0.75;;;20.00;78.90;;;;;;4423129;32;20074;-79
2023/06/11 01:04:51;;;;;;;0.60;0.60;;;19.90;79.10;;;;;;4423099;32;20070;-80
2023/06/11 01:07:18;;;;;;;0.43;0.43;;;19.90;79.30;;;;;;4423757;32;20097;-79
2023/06/11 01:09:45;;;;;;;1.90;0.35;;;19.80;79.70;;;;;;4425652;32;20450;-79
2023/06/11 01:12:10;;;;;;;0.77;0.40;;;19.80;80.00;;;;;;4424940;32;20517;-77
2023/06/11 01:14:36;;;;;;;0.47;0.47;;;19.80;80.10;;;;;;4426767;32;20098;-80
2023/06/11 01:17:15;;;;;;;1.17;0.52;;;19.70;80.10;;;;;;4424568;32;20089;-79
2023/06/11 01:20:11;;;;;;;0.40;0.40;;;19.60;80.40;;;;;;4424776;32;20069;-80
2023/06/11 01:23:17;;;;;;;6.07;0.45;;;19.60;81.50;;;;;;4427528;32;20094;-78
2023/06/11 01:26:07;;;;;;;0.40;0.40;;;19.60;80.90;;;;;;4412954;32;20482;-79
2023/06/11 01:28:36;;;;;;;1.17;1.05;;;19.50;81.00;;;;;;4424516;32;20101;-79
2023/06/11 01:31:12;;;;;;;0.40;0.40;;;19.40;81.50;;;;;;4424163;32;20134;-77
2023/06/11 01:33:38;;;;;;;0.60;0.60;;;19.40;81.90;;;;;;4427025;32;20113;-80
2023/06/11 01:36:05;;;;;;;0.40;0.40;;;19.40;81.70;;;;;;4422758;32;20073;-79
2023/06/11 01:38:34;;;;;;;1.25;0.68;;;19.40;82.00;;;;;;4426825;32;20123;-79
2023/06/11 01:41:00;;;;;;;0.22;0.22;;;19.40;81.90;;;;;;4424394;32;20081;-79
2023/06/11 01:43:28;;;;;;;0.28;0.28;;;19.30;82.10;;;;;;4423735;32;20386;-77
2023/06/11 01:45:55;;;;;;;0.98;0.40;;;19.30;82.10;;;;;;4424019;32;20087;-80
2023/06/11 01:48:21;;;;;;;0.30;0.30;;;19.30;82.40;;;;;;4424574;32;20156;-77
2023/06/11 01:50:46;;;;;;;0.40;0.40;;;19.10;83.70;;;;;;4424443;32;20113;-79
2023/06/11 01:53:12;;;;;;;0.32;0.32;;;19.20;82.80;;;;;;4425433;32;20070;-78
2023/06/11 01:55:38;;;;;;;0.30;0.30;;;19.10;82.90;;;;;;4426566;32;20065;-79
2023/06/11 01:58:03;;;;;;;1.00;0.62;;;19.10;82.80;;;;;;4427003;32;20077;-78
2023/06/11 02:00:29;;;;;;;0.32;0.32;;;19.10;83.20;;;;;;4424295;32;20603;-77
2023/06/11 02:02:54;;;;;;;1.65;0.93;;;19.00;83.50;;;;;;4426582;32;20066;-77
2023/06/11 02:05:20;;;;;;;0.20;0.20;;;19.00;83.70;;;;;;4427839;32;20528;-78
2023/06/11 02:07:45;;;;;;;1.55;0.75;;;18.90;83.90;;;;;;4427354;32;20547;-79
2023/06/11 02:10:11;;;;;;;0.30;0.30;;;18.90;84.10;;;;;;4429439;32;20057;-79
2023/06/11 02:12:37;;;;;;;0.55;0.52;;;18.90;84.20;;;;;;4428715;32;20077;-76
2023/06/11 02:15:04;;;;;;;9.75;1.65;;;18.90;84.10;;;;;;4428255;32;20097;-78
2023/06/11 02:17:30;;;;;;;0.30;0.30;;;18.80;84.10;;;;;;4424515;32;20113;-77
2023/06/11 02:19:55;;;;;;;0.30;0.30;;;18.80;84.20;;;;;;4427827;32;20098;-79
2023/06/11 02:22:21;;;;;;;1.17;0.40;;;18.70;84.40;;;;;;4425971;32;20124;-79
2023/06/11 02:24:46;;;;;;;1.90;1.10;;;18.60;84.90;;;;;;4430428;32;20432;-77
2023/06/11 02:27:12;;;;;;;0.30;0.30;;;18.60;85.10;;;;;;4427379;32;20065;-78
2023/06/11 02:29:37;;;;;;;2.35;0.80;;;18.50;85.00;;;;;;4429203;32;20065;-79
2023/06/11 02:32:04;;;;;;;0.40;0.40;;;18.50;85.20;;;;;;4424437;32;20192;-79
2023/06/11 02:34:30;;;;;;;0.62;0.47;;;18.40;85.60;;;;;;4428080;32;20532;-78
2023/06/11 02:36:55;;;;;;;0.40;0.40;;;18.40;85.50;;;;;;4426688;32;20081;-78
2023/06/11 02:39:20;;;;;;;0.45;0.45;;;18.40;85.30;;;;;;4427712;32;20469;-78
2023/06/11 02:41:46;;;;;;;0.40;0.40;;;18.40;85.40;;;;;;4425357;32;20110;-78
2023/06/11 02:44:11;;;;;;;0.20;0.20;;;18.50;85.30;;;;;;4431176;32;20069;-79
2023/06/11 02:46:37;;;;;;;0.47;0.47;;;18.40;85.30;;;;;;4426760;32;20110;-78
2023/06/11 02:49:02;;;;;;;0.32;0.32;;;18.50;85.30;;;;;;4428655;32;20093;-80
2023/06/11 02:51:28;;;;;;;0.30;0.30;;;18.50;85.20;;;;;;4426971;32;20166;-76
2023/06/11 02:53:53;;;;;;;0.37;0.37;;;18.50;85.40;;;;;;4426266;32;20073;-78
2023/06/11 02:56:19;;;;;;;0.20;0.20;;;18.40;85.90;;;;;;4423996;32;20065;-79
2023/06/11 02:58:44;;;;;;;0.65;0.60;;;18.40;85.70;;;;;;4428688;32;20069;-79
2023/06/11 03:01:11;;;;;;;2.40;1.05;;;18.30;85.80;;;;;;4425083;32;20509;-79
2023/06/11 03:03:36;;;;;;;0.30;0.30;;;18.30;86.20;;;;;;4427823;32;20081;-80
2023/06/11 03:06:02;;;;;;;0.40;0.40;;;18.30;86.20;;;;;;4425474;32;20078;-80
2023/06/11 03:08:27;;;;;;;0.80;0.40;;;18.30;86.00;;;;;;4426536;32;20065;-78
2023/06/11 03:10:53;;;;;;;0.43;0.43;;;18.30;86.00;;;;;;4426629;32;20612;-78
2023/06/11 03:13:18;;;;;;;0.25;0.25;;;18.30;86.20;;;;;;4427525;32;20098;-79
2023/06/11 03:15:44;;;;;;;0.30;0.30;;;18.30;86.20;;;;;;4429639;32;20164;-79
2023/06/11 03:18:10;;;;;;;0.20;0.20;;;18.30;86.50;;;;;;4427712;32;20105;-79
2023/06/11 03:20:35;;;;;;;0.62;0.37;;;18.20;86.30;;;;;;4427204;32;20538;-77
2023/06/11 03:23:02;;;;;;;0.25;0.25;;;18.20;86.30;;;;;;4428319;32;21112;-80
2023/06/11 03:25:27;;;;;;;0.52;0.35;;;18.20;86.40;;;;;;4429482;32;20074;-79
2023/06/11 03:27:53;;;;;;;0.20;0.20;;;18.10;86.60;;;;;;4427881;32;20159;-79
2023/06/11 03:30:18;;;;;;;0.32;0.32;;;18.10;86.80;;;;;;4428164;32;20090;-79
2023/06/11 03:32:44;;;;;;;0.40;0.40;;;18.10;87.00;;;;;;4423261;32;20061;-78
2023/06/11 03:35:09;;;;;;;0.75;0.75;;;18.10;87.10;;;;;;4425144;32;20073;-79
2023/06/11 03:37:35;;;;;;;0.22;0.22;;;18.20;86.70;;;;;;4424554;32;20065;-80
2023/06/11 03:40:00;;;;;;;1.48;0.40;;;18.20;86.90;;;;;;4426594;32;20129;-76
2023/06/11 03:42:28;;;;;;;2.85;0.65;;;18.10;87.00;;;;;;4424726;32;20081;-78
2023/06/11 03:44:54;;;;;;;0.25;0.25;;;18.00;86.50;;;;;;4429329;32;20073;-76
2023/06/11 03:47:19;;;;;;;0.88;0.60;;;18.10;86.80;;;;;;4423427;32;20081;-78
2023/06/11 03:49:45;;;;;;;0.65;0.55;;;18.10;87.10;;;;;;4427910;32;20111;-78
2023/06/11 03:52:11;;;;;;;3.40;0.60;;;18.10;86.70;;;;;;4424230;32;20431;-79
2023/06/11 03:54:36;;;;;;;0.95;0.50;;;18.10;86.80;;;;;;4426474;32;20077;-78
2023/06/11 03:57:02;;;;;;;0.50;0.50;;;18.10;86.80;;;;;;4423552;32;20085;-76
2023/06/11 03:59:27;;;;;;;1.17;0.65;;;18.10;87.20;;;;;;4427786;32;20462;-78
2023/06/11 04:01:53;;;;;;;2.08;0.68;;;18.10;86.60;;;;;;4421606;32;20069;-77
2023/06/11 04:04:18;;;;;;;0.60;0.57;;;18.10;86.80;;;;;;4425957;32;20420;-77
2023/06/11 04:06:44;;;;;;;0.30;0.30;;;18.10;87.10;;;;;;4422828;32;20566;-76
2023/06/11 04:09:09;;;;;;;2.50;1.05;;;18.10;86.90;;;;;;4427071;32;20093;-80
2023/06/11 04:11:35;;;;;;;0.30;0.30;;;18.00;87.10;;;;;;4424684;32;20551;-79
2023/06/11 04:14:00;;;;;;;0.40;0.40;;;17.90;87.30;;;;;;4425069;32;20114;-78
2023/06/11 04:16:26;;;;;;;0.95;0.55;;;17.90;87.50;;;;;;4425035;32;20076;-79
2023/06/11 04:18:52;;;;;;;0.40;0.40;;;17.90;87.40;;;;;;4427564;32;20110;-78
2023/06/11 04:21:18;;;;;;;0.50;0.50;;;17.90;87.10;;;;;;4425246;32;20085;-80
2023/06/11 04:23:43;;;;;;;30.80;0.73;;;17.90;87.10;;;;;;4427782;32;20147;-79
2023/06/11 04:26:10;;;;;;;0.50;0.50;;;18.10;87.40;;;;;;4425272;32;20081;-79
2023/06/11 04:28:37;;;;;;;0.98;0.65;;;18.10;87.00;;;;;;4424037;32;20149;-79
2023/06/11 04:31:04;;;;;;;0.50;0.50;;;18.10;86.70;;;;;;4426761;32;21748;-78
2023/06/11 04:33:32;;;;;;;0.20;0.20;;;18.00;86.90;;;;;;4426605;32;20061;-78
2023/06/11 04:36:00;;;;;;;5.32;0.65;;;18.10;87.00;;;;;;4427478;32;20109;-79
2023/06/11 04:38:28;;;;;;;0.35;0.35;;;18.00;87.20;;;;;;4428211;32;20081;-78
2023/06/11 04:40:54;;;;;;;0.32;0.32;;;18.10;87.20;;;;;;4426892;32;20082;-80
2023/06/11 04:43:22;;;;;;;0.32;0.32;;;18.10;87.90;;;;;;4427284;32;20098;-76
2023/06/11 04:45:49;;;;;;;3.75;1.00;;;18.20;87.40;;;;;;4424485;32;20820;-79
2023/06/11 04:48:21;;;;;;;1.08;0.82;;;18.20;87.30;;;;;;4425693;32;20097;-79
2023/06/11 04:50:51;;;;;;;0.30;0.30;;;18.30;87.50;;;;;;4428839;32;20085;-79
2023/06/11 04:53:22;;;;;;;0.30;0.30;;;18.30;87.00;;;;;;4426373;32;20089;-77
2023/06/11 04:55:50;;;;;;;0.20;0.20;;;18.40;87.20;;;;;;4427778;32;20069;-77
2023/06/11 04:58:15;;;;;;;0.60;0.52;;;18.40;86.90;;;;;;4423802;32;20117;-78
2023/06/11 05:00:42;;;;;;;1.75;0.40;;;18.30;87.40;;;;;;4424985;32;20093;-78
2023/06/11 05:03:08;;;;;;;0.20;0.20;;;18.30;86.80;;;;;;4421053;32;20093;-79
2023/06/11 05:05:33;;;;;;;0.30;0.30;;;18.20;87.00;;;;;;4423016;32;20119;-79
2023/06/11 05:07:59;;;;;;;4.20;0.93;;;18.20;87.00;;;;;;4423101;32;20820;-79
2023/06/11 05:10:25;;;;;;;0.30;0.30;;;18.20;88.10;;;;;;4424676;32;20085;-77
2023/06/11 05:12:50;;;;;;;0.25;0.25;;;18.30;87.10;;;;;;4423330;32;21718;-79
2023/06/11 05:15:16;;;;;;;0.52;0.52;;;18.30;88.20;;;;;;4423504;32;20139;-78
2023/06/11 05:17:41;;;;;;;0.40;0.40;;;18.30;87.20;;;;;;4423686;32;20137;-78
2023/06/11 05:20:07;;;;;;;2.25;0.68;;;18.30;87.10;;;;;;4425035;32;20157;-79
2023/06/11 05:22:34;;;;;;;0.40;0.40;;;18.20;87.00;;;;;;4422102;32;20195;-78
2023/06/11 05:24:59;;;;;;;0.30;0.30;;;18.20;87.30;;;;;;4424448;32;20080;-78
2023/06/11 05:27:28;;;;;;;0.52;0.52;;;18.40;87.40;;;;;;4424626;32;20065;-78
2023/06/11 05:29:55;;;;;;;0.30;0.30;;;18.50;87.50;;;;;;4426803;32;20077;-78
2023/06/11 05:32:21;;;;;;;0.30;0.30;;;18.50;87.70;;;;;;4426888;32;20096;-79
2023/06/11 05:34:49;;;;;;;0.65;0.65;;;18.60;88.00;;;;;;4423726;32;20481;-78
2023/06/11 05:37:15;;;;;;;0.90;0.65;;;18.60;86.90;;;;;;4425502;32;20454;-79
2023/06/11 05:39:41;;;;;;;0.55;0.40;;;18.70;86.40;;;;;;4424920;32;20085;-78
2023/06/11 05:42:06;;;;;;;1.35;0.98;;;18.60;86.90;;;;;;4424177;32;20803;-78
2023/06/11 05:44:32;;;;;;;1.42;1.05;;;18.70;87.80;;;;;;4423372;32;20074;-80
2023/06/11 05:46:57;;;;;;;4.47;1.55;;;18.80;87.20;;;;;;4428705;32;20086;-80
2023/06/11 05:49:23;;;;;;;3.75;0.98;;;18.90;86.70;;;;;;4427240;32;20070;-79
2023/06/11 05:51:48;;;;;;;1.20;0.80;;;18.90;87.30;;;;;;4428157;32;20113;-78
2023/06/11 05:54:14;;;;;;;0.50;0.50;;;19.00;86.60;;;;;;4429949;32;20061;-79
2023/06/11 05:56:39;;;;;;;0.68;0.55;;;19.00;87.30;;;;;;4430756;32;20081;-78
2023/06/11 05:59:05;;;;;;;0.50;0.50;;;19.10;86.80;;;;;;4430148;32;20069;-79
2023/06/11 06:01:33;;;;;;;0.40;0.40;;;19.20;86.60;;;;;;4429984;32;20093;-76
2023/06/11 06:03:59;;;;;;;0.50;0.50;;;19.30;86.70;;;;;;4426707;32;20085;-79
2023/06/11 06:06:25;;;;;;;0.62;0.62;;;19.30;85.80;;;;;;4428504;32;20069;-79
2023/06/11 06:08:51;;;;;;;0.50;0.50;;;19.40;85.90;;;;;;4430296;32;20089;-76
2023/06/11 06:11:16;;;;;;;2.42;0.73;;;19.40;86.10;;;;;;4431985;32;20090;-77
2023/06/11 06:13:42;;;;;;;0.40;0.40;;;19.40;85.30;;;;;;4434494;32;20069;-77
2023/06/11 06:16:07;;;;;;;0.30;0.30;;;19.40;85.70;;;;;;4430716;32;20082;-79
2023/06/11 06:18:34;;;;;;;0.77;0.28;;;19.50;86.40;;;;;;4426612;32;20078;-78
2023/06/11 06:21:00;;;;;;;0.22;0.22;;;19.60;85.40;;;;;;4427703;32;20133;-78
2023/06/11 06:23:25;;;;;;;0.30;0.30;;;19.70;85.20;;;;;;4427583;32;20100;-77
2023/06/11 06:25:51;;;;;;;0.47;0.47;;;19.60;85.30;;;;;;4429397;32;20530;-79
2023/06/11 06:28:17;;;;;;;0.30;0.30;;;19.70;85.80;;;;;;4430432;32;20089;-78
2023/06/11 06:30:43;;;;;;;0.43;0.43;;;19.70;84.70;;;;;;4429542;32;20221;-78
2023/06/11 06:33:08;;;;;;;0.60;0.60;;;19.70;85.50;;;;;;4429287;32;20124;-78
2023/06/11 06:35:34;;;;;;;0.50;0.50;;;19.80;86.50;;;;;;4429541;32;20362;-78
2023/06/11 06:38:00;;;;;;;1.50;1.23;;;19.90;85.20;;;;;;4429831;32;20552;-76
2023/06/11 06:40:26;;;;;;;0.32;0.32;;;20.00;84.90;;;;;;4429284;32;20090;-79
2023/06/11 06:42:51;;;;;;;0.40;0.40;;;20.10;84.50;;;;;;4431063;32;20057;-79
2023/06/11 06:45:17;;;;;;;0.50;0.50;;;20.20;84.20;;;;;;4429517;32;20109;-77
2023/06/11 06:47:42;;;;;;;0.25;0.25;;;20.20;84.20;;;;;;4430975;32;20085;-79
2023/06/11 06:50:08;;;;;;;0.30;0.30;;;20.20;84.80;;;;;;4428234;32;20069;-79
2023/06/11 06:52:34;;;;;;;0.40;0.37;;;20.40;84.90;;;;;;4428138;32;20093;-78
2023/06/11 06:54:59;;;;;;;1.12;0.43;;;20.30;84.50;;;;;;4430889;32;20078;-79
2023/06/11 06:57:25;;;;;;;0.30;0.30;;;20.40;83.70;;;;;;4428872;32;20098;-79
2023/06/11 06:59:50;;;;;;;0.60;0.60;;;20.50;83.10;;;;;;4428130;32;20114;-80
2023/06/11 07:02:16;;;;;;;0.25;0.25;;;20.50;83.40;;;;;;4430258;32;20076;-78
2023/06/11 07:04:41;;;;;;;0.30;0.30;;;20.60;83.80;;;;;;4428288;32;20058;-77
2023/06/11 07:07:07;;;;;;;0.35;0.35;;;20.80;83.30;;;;;;4426412;32;20077;-78
2023/06/11 07:09:32;;;;;;;0.30;0.30;;;20.80;83.00;;;;;;4428763;32;20073;-77
2023/06/11 07:11:58;;;;;;;0.20;0.20;;;20.80;82.80;;;;;;4426917;32;20069;-78
2023/06/11 07:14:23;;;;;;;1.08;0.95;;;20.90;83.00;;;;;;4429984;32;20086;-77
2023/06/11 07:16:49;;;;;;;1.37;0.68;;;21.00;82.30;;;;;;4430452;32;20070;-76
2023/06/11 07:19:14;;;;;;;0.60;0.52;;;21.10;82.70;;;;;;4424769;32;20154;-78
2023/06/11 07:21:40;;;;;;;0.20;0.20;;;21.20;82.80;;;;;;4423488;32;20089;-79
2023/06/11 07:24:07;;;;;;;1.55;0.85;;;21.30;82.60;;;;;;4426367;32;20606;-77
2023/06/11 07:26:33;;;;;;;0.90;0.73;;;21.40;82.10;;;;;;4424108;32;20117;-79
2023/06/11 07:28:59;;;;;;;0.35;0.35;;;21.50;81.70;;;;;;4422727;32;20143;-79
2023/06/11 07:31:25;;;;;;;0.50;0.50;;;21.50;81.20;;;;;;4424599;32;20081;-80
2023/06/11 07:33:50;;;;;;;1.37;0.73;;;21.70;81.50;;;;;;4421857;32;20140;-79
2023/06/11 07:36:16;;;;;;;0.30;0.30;;;21.80;81.60;;;;;;4424485;32;20082;-79
2023/06/11 07:38:44;;;;;;;0.52;0.50;;;21.90;80.70;;;;;;4424052;32;20093;-79
2023/06/11 07:41:10;;;;;;;0.80;0.73;;;22.00;80.70;;;;;;4428491;32;20088;-79
2023/06/11 07:43:35;;;;;;;2.25;1.40;;;22.20;80.10;;;;;;4424889;32;20069;-79
2023/06/11 07:46:01;;;;;;;0.28;0.28;;;22.30;79.40;;;;;;4422147;32;20182;-80
2023/06/11 07:48:27;;;;;;;0.85;0.40;;;22.40;78.40;;;;;;4424181;32;20121;-79
2023/06/11 07:50:53;;;;;;;0.40;0.40;;;22.40;79.00;;;;;;4423715;32;20069;-80
2023/06/11 07:53:21;;;;;;;1.45;0.85;;;22.50;79.30;;;;;;4426071;32;20093;-79
2023/06/11 07:55:47;;;;;;;0.50;0.43;;;22.80;79.20;;;;;;4423071;32;20490;-79
2023/06/11 07:58:13;;;;;;;1.87;1.00;;;22.80;78.80;;;;;;4424394;32;20073;-78
2023/06/11 08:00:38;;;;;;;0.30;0.30;;;22.90;78.10;;;;;;4426306;32;20081;-79
2023/06/11 08:03:04;;;;;;;2.60;0.40;;;23.10;78.80;;;;;;4425297;32;20718;-81
2023/06/11 08:05:30;;;;;;;0.22;0.22;;;23.40;78.30;;;;;;4423251;32;20102;-79
2023/06/11 08:07:55;;;;;;;0.65;0.50;;;23.40;77.50;;;;;;4426335;32;20097;-77
2023/06/11 08:10:21;;;;;;;0.50;0.50;;;23.60;77.50;;;;;;4426227;32;20093;-79
2023/06/11 08:12:47;;;;;;;0.30;0.30;;;23.70;77.30;;;;;;4423255;32;20085;-77
2023/06/11 08:15:12;;;;;;;0.57;0.50;;;23.80;77.40;;;;;;4428463;32;20085;-76
2023/06/11 08:17:38;;;;;;;3.40;0.73;;;23.90;76.60;;;;;;4422691;32;20549;-79
2023/06/11 08:20:07;;;;;;;1.80;0.30;;;23.80;75.00;;;;;;4427914;32;20082;-77
2023/06/11 08:22:32;;;;;;;0.37;0.37;;;23.90;75.50;;;;;;4421261;32;20268;-80
2023/06/11 08:24:58;;;;;;;0.37;0.32;;;23.90;75.30;;;;;;4423513;32;20065;-78
2023/06/11 08:27:23;;;;;;;1.10;0.80;;;23.90;75.90;;;;;;4424401;32;20064;-79
2023/06/11 08:29:49;;;;;;;0.70;0.65;;;24.00;76.30;;;;;;4426388;32;20065;-79
2023/06/11 08:32:15;;;;;;;0.50;0.50;;;24.10;74.10;;;;;;4423569;32;20074;-78
2023/06/11 08:34:40;;;;;;;0.45;0.45;;;24.10;74.20;;;;;;4423098;32;20117;-79
2023/06/11 08:37:06;;;;;;;0.50;0.50;;;24.30;74.90;;;;;;4419725;32;20101;-77
2023/06/11 08:39:31;;;;;;;0.30;0.30;;;24.20;74.20;;;;;;4421550;32;20108;-79
2023/06/11 08:41:57;;;;;;;0.50;0.50;;;24.20;74.80;;;;;;4421922;32;20566;-77
2023/06/11 08:44:22;;;;;;;0.85;0.50;;;24.40;75.30;;;;;;4422671;32;20080;-79
2023/06/11 08:46:49;;;;;;;0.25;0.25;;;24.50;74.00;;;;;;4422603;32;20101;-80
2023/06/11 08:49:22;;;;;;;1.20;0.80;;;24.70;74.00;;;;;;4420712;32;20081;-80
2023/06/11 08:51:48;;;;;;;1.90;0.65;;;24.50;73.20;;;;;;4421782;32;20090;-78
2023/06/11 08:54:15;;;;;;;0.35;0.35;;;24.50;73.20;;;;;;4423984;32;20069;-79
2023/06/11 08:56:41;;;;;;;1.65;0.85;;;24.60;74.70;;;;;;4423019;32;20133;-79
2023/06/11 08:59:07;;;;;;;1.95;0.88;;;24.80;73.50;;;;;;4424650;32;20124;-78
2023/06/11 09:01:34;;;;;;;0.57;0.57;;;24.80;73.20;;;;;;4421581;32;20086;-79
2023/06/11 09:04:00;;;;;;;0.20;0.20;;;24.80;73.20;;;;;;4422206;32;20532;-78
2023/06/11 09:06:26;;;;;;;0.40;0.40;;;24.70;73.60;;;;;;4421149;32;20128;-77
2023/06/11 09:09:01;;;;;;;1.08;0.52;;;24.80;73.10;;;;;;4419974;32;20062;-79
2023/06/11 09:11:35;;;;;;;2.15;0.70;;;24.90;72.80;;;;;;4421346;32;20081;-78
2023/06/11 09:14:02;;;;;;;0.75;0.70;;;25.00;72.70;;;;;;4421498;32;20062;-78
2023/06/11 09:16:28;;;;;;;1.37;0.60;;;25.10;72.60;;;;;;4420592;32;20089;-77
2023/06/11 09:18:56;;;;;;;0.43;0.43;;;25.10;72.90;;;;;;4423943;32;20310;-79
2023/06/11 09:21:24;;;;;;;11.70;0.95;;;25.20;72.80;;;;;;4422491;32;20093;-78
2023/06/11 09:23:51;;;;;;;3.83;0.43;;;25.40;72.20;;;;;;4419975;32;20069;-80
2023/06/11 09:26:18;;;;;;;0.30;0.30;;;25.40;72.30;;;;;;4423104;32;20101;-78
2023/06/11 09:28:44;;;;;;;0.35;0.35;;;25.50;72.70;;;;;;4425480;32;20093;-78
2023/06/11 09:31:10;;;;;;;0.30;0.30;;;25.50;71.20;;;;;;4420917;32;20106;-78
2023/06/11 09:33:36;;;;;;;0.50;0.50;;;25.60;71.80;;;;;;4419632;32;20066;-80
2023/06/11 09:36:02;;;;;;;0.20;0.20;;;25.60;71.50;;;;;;4420052;32;20598;-76
2023/06/11 09:38:27;;;;;;;1.35;0.50;;;25.60;72.10;;;;;;4422912;32;20127;-79
2023/06/11 09:40:55;;;;;;;1.27;0.62;;;25.60;71.80;;;;;;4422434;32;20140;-79
2023/06/11 09:43:23;;;;;;;0.57;0.57;;;25.80;71.20;;;;;;4423031;32;20903;-76
2023/06/11 09:45:52;;;;;;;1.20;0.60;;;25.90;71.30;;;;;;4423517;32;20474;-78
2023/06/11 09:48:19;;;;;;;0.93;0.73;;;26.00;71.40;;;;;;4423206;32;20104;-78
2023/06/11 09:50:48;;;;;;;0.28;0.28;;;26.20;70.80;;;;;;4422818;32;20073;-79
2023/06/11 09:53:14;;;;;;;0.40;0.40;;;26.10;71.10;;;;;;4422978;32;20093;-78
2023/06/11 09:55:41;;;;;;;7.60;0.80;;;26.30;72.50;;;;;;4422539;32;20766;-78
2023/06/11 09:58:06;;;;;;;0.40;0.40;;;26.50;70.00;;;;;;4420721;32;20102;-76
2023/06/11 10:00:35;;;;;;;1.77;0.73;;;26.70;69.90;;;;;;4422715;32;20081;-78
2023/06/11 10:03:01;;;;;;;0.57;0.57;;;26.80;69.10;;;;;;4424482;32;20093;-77
2023/06/11 10:05:27;;;;;;;0.25;0.25;;;26.80;69.30;;;;;;4422077;32;20101;-78
2023/06/11 10:08:02;;;;;;;0.75;0.70;;;26.90;69.20;;;;;;4419229;32;20085;-77
2023/06/11 10:10:29;;;;;;;0.28;0.28;;;26.90;68.10;;;;;;4420521;32;20556;-79
2023/06/11 10:12:55;;;;;;;0.37;0.37;;;26.70;68.80;;;;;;4421598;32;20065;-79
2023/06/11 10:15:23;;;;;;;0.45;0.40;;;26.90;69.40;;;;;;4422892;32;20105;-78
2023/06/11 10:17:50;;;;;;;0.35;0.35;;;27.30;69.50;;;;;;4422708;32;20496;-79
2023/06/11 10:20:18;;;;;;;4.60;0.82;;;27.20;67.20;;;;;;4420193;32;20472;-78
2023/06/11 10:22:43;;;;;;;0.50;0.50;;;27.40;66.60;;;;;;4421773;32;20065;-79
2023/06/11 10:25:09;;;;;;;0.30;0.30;;;27.20;68.30;;;;;;4421440;32;20054;-79
2023/06/11 10:27:36;;;;;;;0.30;0.30;;;27.40;67.00;;;;;;4420168;32;20097;-80
2023/06/11 10:30:02;;;;;;;0.35;0.30;;;27.90;67.30;;;;;;4425310;32;20195;-80
2023/06/11 10:32:28;;;;;;;0.75;0.60;;;28.30;66.60;;;;;;4423508;32;20077;-77
2023/06/11 10:34:56;;;;;;;0.95;0.85;;;28.40;66.50;;;;;;4421977;32;20087;-79
2023/06/11 10:37:40;;;;;;;0.35;0.35;;;28.40;64.90;;;;;;4425209;32;20077;-80
2023/06/11 10:40:07;;;;;;;0.73;0.43;;;28.70;64.00;;;;;;4423336;32;20094;-78
2023/06/11 10:42:36;;;;;;;0.20;0.20;;;28.60;63.50;;;;;;4421653;32;20148;-79
2023/06/11 10:45:07;;;;;;;4.10;1.30;;;28.40;61.20;;;;;;4423372;32;20116;-79
2023/06/11 10:47:49;;;;;;;0.30;0.30;;;28.40;62.80;;;;;;4423457;32;20066;-80
2023/06/11 10:50:16;;;;;;;0.20;0.20;;;28.60;63.50;;;;;;4424080;32;20077;-80
2023/06/11 10:52:53;;;;;;;1.80;0.75;;;29.00;62.30;;;;;;4423656;32;20069;-80
2023/06/11 10:55:21;;;;;;;0.22;0.22;;;28.90;60.60;;;;;;4424571;32;20069;-81
2023/06/11 10:57:51;;;;;;;0.20;0.20;;;28.80;62.50;;;;;;4422897;32;20074;-79
2023/06/11 11:00:17;;;;;;;0.70;0.65;;;29.30;62.30;;;;;;4421445;32;20094;-79
2023/06/11 11:02:43;;;;;;;0.52;0.50;;;29.60;60.70;;;;;;4420076;32;20205;-78
2023/06/11 11:05:10;;;;;;;3.70;1.05;;;29.80;61.30;;;;;;4420473;32;20465;-78
2023/06/11 11:07:36;;;;;;;0.40;0.32;;;30.20;60.60;;;;;;4421026;32;20093;-80
2023/06/11 11:10:04;;;;;;;0.10;0.10;;;30.20;60.00;;;;;;4420843;32;20084;-77
2023/06/11 11:12:39;;;;;;;1.17;0.45;;;30.30;59.00;;;;;;4426754;32;20466;-79
2023/06/11 11:15:06;;;;;;;0.77;0.15;;;30.10;59.10;;;;;;4422906;32;20528;-79
2023/06/11 11:17:33;;;;;;;0.28;0.28;;;29.90;60.10;;;;;;4424152;32;20131;-79
2023/06/11 11:19:59;;;;;;;0.45;0.43;;;29.90;60.20;;;;;;4426919;32;20132;-77
2023/06/11 11:22:29;;;;;;;0.05;0.05;;;29.50;61.30;;;;;;4424465;32;20065;-77
2023/06/11 11:24:58;;;;;;;0.30;0.30;;;29.20;63.60;;;;;;4421359;32;20131;-77
2023/06/11 11:27:24;;;;;;;4.28;1.23;;;29.20;63.20;;;;;;4424558;32;20474;-79
2023/06/11 11:29:50;;;;;;;0.95;0.60;;;29.20;62.40;;;;;;4426448;32;20158;-78
2023/06/11 11:32:17;;;;;;;0.43;0.40;;;28.90;63.10;;;;;;4425966;32;20081;-78
2023/06/11 11:34:43;;;;;;;1.02;0.37;;;28.60;64.00;;;;;;4426933;32;20081;-78
2023/06/11 11:37:09;;;;;;;5.43;1.30;;;29.00;63.70;;;;;;4424271;32;20062;-77
2023/06/11 11:39:35;;;;;;;0.30;0.30;;;29.50;62.40;;;;;;4426764;32;20097;-76
2023/06/11 11:42:01;;;;;;;9.80;0.88;;;29.60;62.00;;;;;;4424739;32;20125;-79
2023/06/11 11:44:27;;;;;;;0.50;0.50;;;30.10;62.40;;;;;;4424553;32;20460;-78
2023/06/11 11:46:57;;;;;;;1.98;0.30;;;30.10;61.10;;;;;;4418961;32;87311;-78
2023/06/11 11:49:30;;;;;;;0.57;0.47;;;30.10;61.70;;;;;;4426435;32;20073;-76
2023/06/11 11:51:57;;;;;;;0.20;0.20;;;30.40;61.50;;;;;;4423020;32;20057;-79
2023/06/11 11:54:22;;;;;;;1.27;0.20;;;30.80;59.10;;;;;;4423177;32;20090;-79
2023/06/11 11:56:57;;;;;;;0.90;0.60;;;30.90;59.70;;;;;;4421699;32;20064;-79
2023/06/11 11:59:22;;;;;;;0.20;0.20;;;30.30;59.50;;;;;;4420761;32;21154;-76
2023/06/11 12:01:57;;;;;;;0.45;0.20;;;30.40;59.50;;;;;;4420629;32;20061;-78
2023/06/11 12:04:33;;;;;;;1.30;0.55;;;30.50;60.10;;;;;;4424066;32;20077;-80
2023/06/11 12:07:04;;;;;;;0.25;0.25;;;31.20;59.20;;;;;;4420773;32;20081;-80
2023/06/11 12:09:30;;;;;;;0.22;0.20;;;31.70;58.10;;;;;;4419783;32;20065;-78
2023/06/11 12:11:56;;;;;;;0.22;0.20;;;31.80;58.20;;;;;;4419980;32;20148;-79
2023/06/11 12:14:21;;;;;;;0.10;0.10;;;32.10;57.50;;;;;;4420286;32;20398;-76
2023/06/11 12:16:49;;;;;;;0.30;0.30;;;32.20;57.20;;;;;;4417506;32;20085;-78
2023/06/11 12:19:17;;;;;;;0.70;0.57;;;32.40;57.40;;;;;;4421132;32;20109;-78
2023/06/11 12:21:42;;;;;;;2.92;1.10;;;32.70;57.70;;;;;;4421767;32;20658;-77
2023/06/11 12:24:11;;;;;;;1.48;0.88;;;32.50;57.30;;;;;;4419067;32;20148;-76
2023/06/11 12:26:37;;;;;;;0.35;0.35;;;31.60;58.60;;;;;;4419731;32;20081;-77
2023/06/11 12:29:03;;;;;;;0.85;0.45;;;30.80;59.30;;;;;;4422756;32;20139;-78
2023/06/11 12:31:28;;;;;;;0.28;0.28;;;30.40;60.70;;;;;;4420630;32;20106;-79
2023/06/11 12:33:55;;;;;;;1.55;0.30;;;30.20;60.70;;;;;;4421108;32;20738;-78
2023/06/11 12:36:20;;;;;;;0.17;0.13;;;29.90;61.70;;;;;;4416310;32;20069;-77
2023/06/11 12:38:46;;;;;;;0.57;0.57;;;29.60;62.40;;;;;;4421130;32;20135;-78
2023/06/11 12:41:11;;;;;;;1.67;0.88;;;30.30;61.30;;;;;;4420455;32;20105;-78
2023/06/11 12:43:37;;;;;;;0.22;0.22;;;30.30;60.10;;;;;;4420195;32;20366;-79
2023/06/11 12:46:02;;;;;;;0.30;0.30;;;30.00;61.10;;;;;;4419159;32;20438;-77